Time;durP1;ratioP1;P1;durP2;ratioP2;P2;SDS_P1;SDS_P2;PMS_P1;PMS_P2;Temp;Humidity;BMP_temperature;BMP_pressure;BME280_temperature;BME280_humidity;BME280_pressure;Samples;Min_cycle;Max_cycle;Signal;HPM_P1;HPM_P2
2024/04/16 00:01:39;;;;;;;11.00;0.70;;;6.30;99.90;;;;;;5362136;26;20004;-80
2024/04/16 00:04:04;;;;;;;16.17;1.27;;;6.30;99.90;;;;;;5363155;26;20094;-80
2024/04/16 00:06:31;;;;;;;6.00;0.47;;;6.30;99.90;;;;;;5352065;26;20013;-80
2024/04/16 00:08:56;;;;;;;8.13;0.70;;;6.30;99.90;;;;;;5370028;26;20457;-80
2024/04/16 00:11:22;;;;;;;16.90;1.40;;;6.40;99.90;;;;;;5376155;26;20000;-80
2024/04/16 00:13:47;;;;;;;11.40;0.80;;;6.40;99.90;;;;;;5365376;26;20001;-80
2024/04/16 00:16:13;;;;;;;9.18;0.63;;;6.50;99.90;;;;;;5346280;26;20087;-80
2024/04/16 00:18:39;;;;;;;8.98;0.50;;;6.60;99.90;;;;;;5370465;26;19996;-79
2024/04/16 00:21:05;;;;;;;8.30;0.50;;;6.60;99.90;;;;;;5352447;26;20011;-80
2024/04/16 00:23:30;;;;;;;11.98;1.25;;;6.60;99.90;;;;;;5360291;26;20083;-80
2024/04/16 00:25:56;;;;;;;13.75;1.52;;;6.70;99.90;;;;;;5379555;26;20435;-80
2024/04/16 00:28:22;;;;;;;7.60;0.60;;;6.70;99.90;;;;;;5379329;26;20516;-80
2024/04/16 00:30:48;;;;;;;14.80;1.25;;;6.80;99.90;;;;;;5377514;26;19993;-79
2024/04/16 00:33:14;;;;;;;11.50;0.77;;;6.80;99.90;;;;;;5380528;26;20037;-80
2024/04/16 00:35:43;;;;;;;11.40;0.63;;;6.90;99.90;;;;;;5345946;26;20001;-79
2024/04/16 00:38:11;;;;;;;7.53;0.43;;;6.90;99.90;;;;;;5373850;26;20007;-80
2024/04/16 00:40:37;;;;;;;6.28;0.60;;;6.90;99.90;;;;;;5361297;26;20065;-80
2024/04/16 00:43:15;;;;;;;7.65;0.68;;;6.90;99.90;;;;;;5372621;26;20352;-80
2024/04/16 00:45:48;;;;;;;8.38;0.50;;;7.00;99.90;;;;;;5366661;26;20386;-80
2024/04/16 00:48:14;;;;;;;8.45;0.63;;;7.00;99.90;;;;;;5346570;26;20448;-80
2024/04/16 00:50:40;;;;;;;6.75;0.63;;;7.00;99.90;;;;;;5346162;26;20001;-80
2024/04/16 00:53:06;;;;;;;9.23;0.75;;;7.00;99.90;;;;;;5367168;26;20399;-80
2024/04/16 00:55:32;;;;;;;9.48;0.70;;;7.00;99.90;;;;;;5356277;26;20027;-79
2024/04/16 00:57:59;;;;;;;11.80;1.33;;;7.10;99.90;;;;;;5349546;26;20041;-80
2024/04/16 01:00:25;;;;;;;6.88;0.55;;;7.10;99.90;;;;;;5371134;26;20007;-80
2024/04/16 01:02:50;;;;;;;6.50;0.68;;;7.10;99.90;;;;;;5375299;26;20016;-79
2024/04/16 01:05:16;;;;;;;6.95;0.47;;;7.10;99.90;;;;;;5342495;26;20090;-80
2024/04/16 01:07:42;;;;;;;13.48;0.82;;;7.10;99.90;;;;;;5355944;26;20020;-79
2024/04/16 01:10:07;;;;;;;11.35;0.80;;;7.10;99.90;;;;;;5349561;26;19997;-80
2024/04/16 01:12:43;;;;;;;10.18;0.77;;;7.20;99.90;;;;;;5344770;26;20005;-80
2024/04/16 01:15:08;;;;;;;9.30;0.52;;;7.20;99.90;;;;;;5353505;26;20011;-80
2024/04/16 01:17:34;;;;;;;9.13;0.70;;;7.20;99.90;;;;;;5356292;26;20361;-80
2024/04/16 01:19:59;;;;;;;6.43;0.95;;;7.20;99.90;;;;;;5344795;26;19997;-80
2024/04/16 01:22:25;;;;;;;8.35;1.00;;;7.20;99.90;;;;;;5344316;26;20004;-80
2024/04/16 01:24:51;;;;;;;6.03;0.52;;;7.10;99.90;;;;;;5364817;26;20016;-81
2024/04/16 01:27:17;;;;;;;10.85;0.52;;;7.10;99.90;;;;;;5360310;26;20001;-80
2024/04/16 01:29:43;;;;;;;7.22;0.90;;;7.10;99.90;;;;;;5361041;26;20003;-79
2024/04/16 01:32:08;;;;;;;11.07;0.50;;;7.10;99.90;;;;;;5344869;26;20011;-80
2024/04/16 01:34:34;;;;;;;9.23;0.40;;;7.10;99.90;;;;;;5348381;26;20000;-80
2024/04/16 01:36:59;;;;;;;4.53;0.25;;;7.20;99.90;;;;;;5352004;26;19996;-80
2024/04/16 01:39:25;;;;;;;3.38;0.50;;;7.20;99.90;;;;;;5376356;26;20107;-80
2024/04/16 01:41:51;;;;;;;3.65;0.32;;;6.80;99.90;;;;;;5367426;26;20378;-80
2024/04/16 01:44:16;;;;;;;5.13;0.30;;;6.60;99.90;;;;;;5347412;26;20015;-80
2024/04/16 01:46:42;;;;;;;6.40;0.52;;;6.30;99.90;;;;;;5365653;26;20000;-79
2024/04/16 01:49:07;;;;;;;3.60;0.20;;;6.20;99.90;;;;;;5354492;26;19993;-79
2024/04/16 01:51:33;;;;;;;3.67;0.30;;;6.20;99.90;;;;;;5345911;26;20325;-79
2024/04/16 01:53:58;;;;;;;3.45;0.22;;;6.10;99.90;;;;;;5347280;26;19997;-80
2024/04/16 01:56:24;;;;;;;9.35;0.40;;;6.10;99.90;;;;;;5361862;26;20070;-80
2024/04/16 01:58:50;;;;;;;2.72;0.30;;;6.10;99.90;;;;;;5355762;26;20240;-79
2024/04/16 02:01:15;;;;;;;2.90;0.30;;;6.10;99.90;;;;;;5362707;26;20000;-79
2024/04/16 02:03:41;;;;;;;4.78;0.30;;;6.20;99.90;;;;;;5371313;26;20040;-79
2024/04/16 02:06:07;;;;;;;6.82;1.10;;;6.20;99.90;;;;;;5345980;26;20009;-80
2024/04/16 02:08:33;;;;;;;4.03;0.30;;;6.30;99.90;;;;;;5366411;26;20501;-79
2024/04/16 02:10:59;;;;;;;6.05;0.40;;;6.30;99.90;;;;;;5358745;26;19996;-80
2024/04/16 02:13:25;;;;;;;5.38;0.50;;;6.40;99.90;;;;;;5357381;26;20317;-80
2024/04/16 02:15:51;;;;;;;5.78;0.40;;;6.40;99.90;;;;;;5351619;26;20529;-79
2024/04/16 02:18:17;;;;;;;5.72;0.40;;;6.40;99.90;;;;;;5347952;26;20008;-80
2024/04/16 02:20:43;;;;;;;6.47;1.02;;;6.40;99.90;;;;;;5352558;26;20004;-80
2024/04/16 02:23:09;;;;;;;3.72;0.35;;;6.40;99.90;;;;;;5347820;26;20011;-80
2024/04/16 02:25:35;;;;;;;5.75;0.35;;;6.40;99.90;;;;;;5367529;26;20076;-80
2024/04/16 02:28:00;;;;;;;7.22;0.40;;;6.50;99.90;;;;;;5369447;26;20000;-80
2024/04/16 02:30:26;;;;;;;3.63;0.40;;;6.50;99.90;;;;;;5368044;26;19996;-79
2024/04/16 02:32:53;;;;;;;3.95;0.47;;;6.40;99.90;;;;;;5344118;26;20350;-80
2024/04/16 02:35:18;;;;;;;4.20;0.43;;;6.40;99.90;;;;;;5365419;26;20000;-80
2024/04/16 02:37:48;;;;;;;5.13;0.52;;;6.40;99.90;;;;;;5350191;26;20451;-80
2024/04/16 02:40:16;;;;;;;4.65;0.32;;;6.40;99.90;;;;;;5371320;26;19996;-79
2024/04/16 02:42:41;;;;;;;2.95;0.20;;;6.40;99.90;;;;;;5365631;26;20033;-80
2024/04/16 02:45:07;;;;;;;4.28;0.20;;;6.30;99.90;;;;;;5358721;26;19997;-80
2024/04/16 02:47:33;;;;;;;0.50;0.10;;;6.10;99.90;;;;;;5343118;26;20012;-80
2024/04/16 02:49:58;;;;;;;1.08;0.10;;;5.80;99.90;;;;;;5366847;26;20000;-80
2024/04/16 02:52:24;;;;;;;1.48;0.10;;;5.60;99.90;;;;;;5362881;26;20457;-79
2024/04/16 02:54:51;;;;;;;3.17;0.10;;;5.50;99.90;;;;;;5371926;26;20087;-80
2024/04/16 02:57:17;;;;;;;1.75;0.10;;;5.40;99.90;;;;;;5349275;26;20127;-80
2024/04/16 02:59:46;;;;;;;0.30;0.00;;;5.30;99.90;;;;;;5350835;26;20016;-80
2024/04/16 03:02:12;;;;;;;1.05;0.15;;;5.20;99.90;;;;;;5345666;26;20368;-80
2024/04/16 03:04:38;;;;;;;2.38;0.10;;;5.10;99.90;;;;;;5352431;26;20012;-80
2024/04/16 03:07:03;;;;;;;1.20;0.00;;;5.10;99.90;;;;;;5350359;26;20078;-79
2024/04/16 03:09:29;;;;;;;1.52;0.10;;;5.00;99.90;;;;;;5348698;26;20001;-80
2024/04/16 03:11:54;;;;;;;4.80;0.10;;;5.00;99.90;;;;;;5357575;26;20000;-80
2024/04/16 03:14:20;;;;;;;0.75;0.10;;;5.00;99.90;;;;;;5363344;26;20041;-80
2024/04/16 03:16:45;;;;;;;2.53;0.10;;;5.00;99.90;;;;;;5343553;26;20013;-80
2024/04/16 03:19:11;;;;;;;1.15;0.10;;;5.00;99.90;;;;;;5343072;26;20234;-80
2024/04/16 03:21:37;;;;;;;1.13;0.30;;;5.00;99.90;;;;;;5351555;26;20078;-80
2024/04/16 03:24:02;;;;;;;0.63;0.10;;;5.00;99.90;;;;;;5347065;26;20041;-80
2024/04/16 03:26:28;;;;;;;1.08;0.00;;;5.00;99.90;;;;;;5343189;26;19997;-79
2024/04/16 03:28:53;;;;;;;0.77;0.10;;;4.90;99.90;;;;;;5357817;26;20371;-80
2024/04/16 03:31:19;;;;;;;3.30;0.10;;;4.90;99.90;;;;;;5363241;26;20001;-80
2024/04/16 03:33:44;;;;;;;1.75;0.52;;;4.90;99.90;;;;;;5349527;26;20077;-79
2024/04/16 03:36:10;;;;;;;2.17;0.10;;;4.90;99.90;;;;;;5367829;26;20000;-79
2024/04/16 03:38:36;;;;;;;1.00;0.20;;;4.90;99.90;;;;;;5351780;26;20012;-79
2024/04/16 03:41:01;;;;;;;2.42;0.10;;;5.00;99.90;;;;;;5374019;26;20001;-79
2024/04/16 03:43:28;;;;;;;2.05;0.10;;;5.00;99.90;;;;;;5369153;26;20012;-79
2024/04/16 03:45:54;;;;;;;2.80;0.63;;;5.00;99.90;;;;;;5368895;26;20018;-80
2024/04/16 03:48:21;;;;;;;2.15;0.10;;;5.10;99.90;;;;;;5353945;26;20004;-79
2024/04/16 03:50:47;;;;;;;0.82;0.40;;;5.10;99.90;;;;;;5352100;26;20444;-80
2024/04/16 03:53:12;;;;;;;2.97;0.40;;;5.10;99.90;;;;;;5367170;26;20007;-79
2024/04/16 03:55:38;;;;;;;1.13;0.20;;;5.10;99.90;;;;;;5349267;26;20087;-80
2024/04/16 03:58:04;;;;;;;1.15;0.10;;;5.10;99.90;;;;;;5357607;26;20037;-79
2024/04/16 04:03:16;;;;;;;2.20;0.20;;;5.00;99.90;;;;;;5357813;26;20359;-79
2024/04/16 04:05:44;;;;;;;1.75;0.20;;;5.00;99.90;;;;;;5356651;26;20007;-79
2024/04/16 04:08:09;;;;;;;0.88;0.17;;;5.00;99.90;;;;;;5373919;26;20007;-79
2024/04/16 04:10:35;;;;;;;1.35;0.20;;;5.00;99.90;;;;;;5379997;26;20004;-79
2024/04/16 04:13:00;;;;;;;2.80;0.20;;;4.90;99.90;;;;;;5362375;26;20023;-79
2024/04/16 04:15:26;;;;;;;3.60;0.45;;;4.90;99.90;;;;;;5348758;26;20001;-79
2024/04/16 04:17:52;;;;;;;2.85;0.47;;;5.00;99.90;;;;;;5346335;26;20002;-79
2024/04/16 04:20:17;;;;;;;1.90;0.38;;;5.00;99.90;;;;;;5352625;26;20359;-79
2024/04/16 04:22:43;;;;;;;4.72;0.50;;;5.10;99.90;;;;;;5358819;26;20004;-79
2024/04/16 04:25:09;;;;;;;3.55;0.50;;;5.10;99.90;;;;;;5356004;26;20399;-79
2024/04/16 04:27:34;;;;;;;8.00;0.60;;;5.20;99.90;;;;;;5366432;26;20344;-79
2024/04/16 04:30:00;;;;;;;3.33;0.60;;;5.20;99.90;;;;;;5351922;26;20360;-79
2024/04/16 04:32:26;;;;;;;3.58;0.43;;;5.30;99.90;;;;;;5352167;26;20000;-79
2024/04/16 04:34:52;;;;;;;6.60;0.95;;;5.30;99.90;;;;;;5357784;26;20433;-79
2024/04/16 04:37:18;;;;;;;8.80;2.33;;;5.30;99.90;;;;;;5351452;26;20055;-79
2024/04/16 04:39:44;;;;;;;5.93;1.08;;;5.40;99.90;;;;;;5347233;26;20008;-79
2024/04/16 04:42:09;;;;;;;11.23;1.30;;;5.40;99.90;;;;;;5362124;26;20004;-79
2024/04/16 04:44:35;;;;;;;7.88;1.08;;;5.50;99.90;;;;;;5364777;26;20087;-79
2024/04/16 04:47:01;;;;;;;8.73;1.45;;;5.50;99.90;;;;;;5358718;26;20016;-79
2024/04/16 04:49:27;;;;;;;4.72;0.90;;;5.60;99.90;;;;;;5345111;26;20015;-79
2024/04/16 04:51:53;;;;;;;9.05;1.00;;;5.60;99.90;;;;;;5353494;26;20001;-79
2024/04/16 04:54:18;;;;;;;5.80;0.70;;;5.70;99.90;;;;;;5364034;26;20120;-79
2024/04/16 04:56:44;;;;;;;4.43;0.57;;;5.70;99.90;;;;;;5386375;26;20000;-79
2024/04/16 04:59:10;;;;;;;6.82;0.77;;;5.80;99.90;;;;;;5353759;26;20007;-79
2024/04/16 05:01:35;;;;;;;5.18;0.60;;;5.80;99.90;;;;;;5383203;26;19996;-79
2024/04/16 05:04:01;;;;;;;4.38;0.50;;;5.90;99.90;;;;;;5380594;26;20008;-79
2024/04/16 05:06:27;;;;;;;2.03;0.40;;;5.90;99.90;;;;;;5346277;26;20016;-79
2024/04/16 05:08:52;;;;;;;1.67;0.60;;;5.90;99.90;;;;;;5375534;26;20190;-79
2024/04/16 05:11:18;;;;;;;2.83;0.25;;;5.90;99.90;;;;;;5370320;26;20016;-80
2024/04/16 05:13:43;;;;;;;1.50;0.20;;;5.90;99.90;;;;;;5370412;26;22554;-80
2024/04/16 05:16:09;;;;;;;3.95;0.45;;;5.80;99.90;;;;;;5372049;26;20014;-80
2024/04/16 05:18:34;;;;;;;4.40;0.30;;;5.80;99.90;;;;;;5373982;26;20001;-80
2024/04/16 05:21:00;;;;;;;5.97;0.75;;;5.70;99.90;;;;;;5353699;26;20039;-78
2024/04/16 05:23:28;;;;;;;2.80;0.25;;;5.70;99.90;;;;;;5349181;26;20009;-79
2024/04/16 05:25:55;;;;;;;2.53;0.17;;;5.70;99.90;;;;;;5348428;26;20005;-80
2024/04/16 05:28:21;;;;;;;1.77;0.38;;;5.70;99.90;;;;;;5352929;26;19999;-81
2024/04/16 05:30:47;;;;;;;5.15;0.75;;;5.60;99.90;;;;;;5351401;26;20330;-79
2024/04/16 05:33:12;;;;;;;2.70;0.40;;;5.60;99.90;;;;;;5357241;26;20010;-80
2024/04/16 05:35:38;;;;;;;3.55;0.20;;;5.60;99.90;;;;;;5373198;26;20012;-79
2024/04/16 05:38:04;;;;;;;7.43;0.25;;;5.60;99.90;;;;;;5366168;26;20478;-79
2024/04/16 05:40:30;;;;;;;1.35;0.20;;;5.60;99.90;;;;;;5371829;26;20094;-79
2024/04/16 05:42:56;;;;;;;3.03;0.30;;;5.60;99.90;;;;;;5343453;26;20025;-80
2024/04/16 05:45:21;;;;;;;3.72;0.30;;;5.60;99.90;;;;;;5359874;26;20011;-79
2024/04/16 05:47:47;;;;;;;3.88;0.35;;;5.60;99.90;;;;;;5374985;26;20042;-80
2024/04/16 05:50:12;;;;;;;1.17;0.20;;;5.70;99.90;;;;;;5363266;26;20027;-79
2024/04/16 05:52:38;;;;;;;3.17;0.65;;;5.70;99.90;;;;;;5372286;26;19996;-80
2024/04/16 05:55:05;;;;;;;0.93;0.32;;;5.70;99.90;;;;;;5359343;26;20015;-79
2024/04/16 05:57:31;;;;;;;2.90;0.38;;;5.70;99.90;;;;;;5346643;26;20337;-80
2024/04/16 05:59:57;;;;;;;3.08;0.75;;;5.70;99.90;;;;;;5363255;26;20005;-81
2024/04/16 06:02:22;;;;;;;3.05;0.32;;;5.70;99.90;;;;;;5346055;26;20001;-80
2024/04/16 06:04:48;;;;;;;3.28;0.30;;;5.80;99.90;;;;;;5359131;26;20000;-80
2024/04/16 06:07:13;;;;;;;6.80;0.60;;;5.90;99.90;;;;;;5367466;26;20077;-79
2024/04/16 06:09:39;;;;;;;7.43;0.63;;;5.90;99.90;;;;;;5349523;26;20409;-80
2024/04/16 06:12:05;;;;;;;6.38;0.80;;;6.00;99.90;;;;;;5360624;26;20015;-80
2024/04/16 06:14:31;;;;;;;9.52;0.95;;;6.10;99.90;;;;;;5373743;26;20075;-80
2024/04/16 06:16:57;;;;;;;6.47;1.02;;;6.20;99.90;;;;;;5364856;26;20013;-80
2024/04/16 06:19:22;;;;;;;11.80;1.00;;;6.30;99.90;;;;;;5359587;26;20016;-80
2024/04/16 06:21:48;;;;;;;7.15;0.90;;;6.40;99.90;;;;;;5344966;26;20012;-79
2024/04/16 06:24:13;;;;;;;10.98;1.25;;;6.40;99.90;;;;;;5379002;26;20015;-80
2024/04/16 06:26:39;;;;;;;13.43;1.42;;;6.50;99.90;;;;;;5354608;26;20051;-80
2024/04/16 06:29:05;;;;;;;6.88;1.42;;;6.70;99.90;;;;;;5353174;26;20001;-80
2024/04/16 06:31:31;;;;;;;12.07;1.20;;;6.80;99.90;;;;;;5345982;26;20082;-80
2024/04/16 06:33:57;;;;;;;12.13;1.45;;;7.00;99.90;;;;;;5344695;26;20001;-80
2024/04/16 06:36:23;;;;;;;17.83;1.45;;;7.10;99.90;;;;;;5357025;26;20010;-80
2024/04/16 06:38:48;;;;;;;7.70;1.70;;;7.30;99.90;;;;;;5358251;26;20015;-80
2024/04/16 06:41:14;;;;;;;16.63;1.40;;;7.40;99.90;;;;;;5375228;26;20019;-80
2024/04/16 06:43:40;;;;;;;9.68;1.08;;;7.50;99.90;;;;;;5343324;26;20040;-80
2024/04/16 06:46:05;;;;;;;11.45;1.00;;;7.50;99.90;;;;;;5344574;26;20024;-80
2024/04/16 06:48:32;;;;;;;12.27;1.00;;;7.60;99.90;;;;;;5366438;26;20015;-80
2024/04/16 06:50:58;;;;;;;12.07;1.25;;;7.70;99.90;;;;;;5344465;26;20012;-80
2024/04/16 06:53:23;;;;;;;14.02;1.65;;;7.90;99.90;;;;;;5345545;26;20001;-80
2024/04/16 06:56:03;;;;;;;12.27;1.08;;;8.00;99.90;;;;;;5360653;26;20452;-80
2024/04/16 06:58:28;;;;;;;14.48;1.73;;;8.00;99.90;;;;;;5364236;26;20000;-80
2024/04/16 07:00:55;;;;;;;12.07;1.25;;;8.00;99.90;;;;;;5376306;26;20308;-81
2024/04/16 07:03:21;;;;;;;12.27;1.00;;;8.10;99.90;;;;;;5369060;26;20008;-81
2024/04/16 07:05:47;;;;;;;7.15;0.82;;;8.20;99.90;;;;;;5378618;26;20362;-81
2024/04/16 07:08:13;;;;;;;16.33;1.00;;;8.20;99.90;;;;;;5363937;26;20012;-79
2024/04/16 07:10:38;;;;;;;11.93;1.77;;;8.20;99.90;;;;;;5379904;26;20494;-80
2024/04/16 07:13:04;;;;;;;17.90;1.73;;;8.10;99.90;;;;;;5360301;26;20012;-81
2024/04/16 07:15:30;;;;;;;13.65;1.15;;;8.10;99.90;;;;;;5343703;26;20393;-83
2024/04/16 07:18:09;;;;;;;7.18;0.70;;;7.90;99.90;;;;;;5478589;25;20473;-82
2024/04/16 07:20:34;;;;;;;12.55;1.38;;;7.80;99.90;;;;;;5430701;26;20057;-81
2024/04/16 07:23:01;;;;;;;8.20;0.90;;;7.70;99.90;;;;;;5415962;26;20031;-81
2024/04/16 07:25:27;;;;;;;11.85;0.77;;;7.60;99.90;;;;;;5418212;26;20072;-80
2024/04/16 07:27:53;;;;;;;8.95;0.63;;;7.50;99.90;;;;;;5425453;26;19992;-80
2024/04/16 07:30:19;;;;;;;10.52;1.40;;;7.50;99.90;;;;;;5427894;26;20015;-79
2024/04/16 07:32:45;;;;;;;4.78;0.47;;;7.50;99.90;;;;;;5446420;26;20012;-79
2024/04/16 07:35:11;;;;;;;10.95;0.70;;;7.50;99.90;;;;;;5421856;26;20327;-79
2024/04/16 07:37:36;;;;;;;8.10;0.75;;;7.50;99.90;;;;;;5416694;26;20003;-79
2024/04/16 07:40:03;;;;;;;16.13;1.23;;;7.60;99.90;;;;;;5403819;26;20000;-79
2024/04/16 07:42:28;;;;;;;16.60;1.25;;;7.70;99.90;;;;;;5421497;26;19995;-79
2024/04/16 07:44:54;;;;;;;8.75;0.88;;;7.70;99.90;;;;;;5432974;26;20461;-79
2024/04/16 07:47:21;;;;;;;17.45;2.08;;;7.80;99.90;;;;;;5419602;26;19996;-79
2024/04/16 07:49:47;;;;;;;9.43;0.70;;;7.80;99.90;;;;;;5410010;26;20028;-78
2024/04/16 07:52:13;;;;;;;14.35;1.52;;;8.00;99.90;;;;;;5407654;26;20045;-79
2024/04/16 07:54:38;;;;;;;16.25;1.50;;;8.00;99.90;;;;;;5432703;26;20010;-79
2024/04/16 07:57:04;;;;;;;8.73;1.20;;;8.10;99.90;;;;;;5430325;26;20049;-79
2024/04/16 07:59:29;;;;;;;11.77;2.08;;;8.20;99.90;;;;;;5420518;26;20012;-79
2024/04/16 08:01:55;;;;;;;17.35;1.55;;;8.30;99.90;;;;;;5422210;26;20014;-79
2024/04/16 08:04:21;;;;;;;11.52;1.10;;;8.30;99.90;;;;;;5424970;26;20004;-79
2024/04/16 08:06:48;;;;;;;7.90;0.90;;;8.40;99.90;;;;;;5432463;26;19999;-79
2024/04/16 08:09:13;;;;;;;10.38;1.00;;;8.50;99.90;;;;;;5417926;26;20003;-78
2024/04/16 08:11:39;;;;;;;12.52;1.90;;;8.50;99.90;;;;;;5410577;26;20027;-79
2024/04/16 08:14:05;;;;;;;7.30;0.85;;;8.50;99.90;;;;;;5411954;26;20011;-79
2024/04/16 08:16:30;;;;;;;9.50;1.30;;;8.40;99.90;;;;;;5409246;26;20007;-79
2024/04/16 08:18:56;;;;;;;11.40;1.20;;;8.30;99.90;;;;;;5428478;26;20018;-79
2024/04/16 08:21:22;;;;;;;10.05;1.65;;;8.20;99.90;;;;;;5412836;26;20129;-80
2024/04/16 08:23:54;;;;;;;13.15;1.20;;;8.00;99.90;;;;;;5417938;26;22160;-81
2024/04/16 08:26:20;;;;;;;12.77;0.90;;;8.00;99.90;;;;;;5395009;26;20008;-80
2024/04/16 08:28:45;;;;;;;18.10;2.08;;;8.00;99.90;;;;;;5395543;26;20444;-80
2024/04/16 08:31:11;;;;;;;12.05;1.17;;;7.90;99.90;;;;;;5389522;26;20003;-80
2024/04/16 08:33:37;;;;;;;12.60;1.10;;;7.90;99.90;;;;;;5398949;26;20006;-80
2024/04/16 08:36:04;;;;;;;14.20;1.63;;;7.90;99.90;;;;;;5405020;26;20403;-80
2024/04/16 08:38:30;;;;;;;9.27;0.77;;;7.80;99.90;;;;;;5383791;26;20081;-81
2024/04/16 08:40:56;;;;;;;9.95;0.98;;;7.80;99.90;;;;;;5390642;26;20007;-81
2024/04/16 08:43:24;;;;;;;7.38;0.77;;;7.80;99.90;;;;;;5411653;26;20004;-81
2024/04/16 08:45:51;;;;;;;7.90;0.50;;;7.70;99.90;;;;;;5411586;26;20003;-81
2024/04/16 08:48:17;;;;;;;11.43;0.70;;;7.60;99.90;;;;;;5407184;26;20041;-81
2024/04/16 08:50:45;;;;;;;10.50;0.85;;;7.60;99.90;;;;;;5403096;26;20369;-81
2024/04/16 08:53:13;;;;;;;5.50;0.70;;;7.70;99.90;;;;;;5409814;26;20000;-81
2024/04/16 08:55:40;;;;;;;7.82;0.73;;;7.70;99.90;;;;;;5405160;26;20074;-81
2024/04/16 08:58:06;;;;;;;11.43;0.85;;;7.70;99.90;;;;;;5401354;26;20328;-81
2024/04/16 09:00:32;;;;;;;11.25;1.02;;;7.70;99.90;;;;;;5412631;26;20029;-80
2024/04/16 09:02:58;;;;;;;7.20;0.75;;;7.80;99.90;;;;;;5404036;26;20050;-80
2024/04/16 09:05:24;;;;;;;11.32;0.70;;;8.00;99.90;;;;;;5395025;26;20525;-80
2024/04/16 09:07:50;;;;;;;8.13;0.70;;;8.10;99.90;;;;;;5400410;26;20000;-80
2024/04/16 09:10:19;;;;;;;9.48;0.88;;;8.30;99.90;;;;;;5395757;26;20310;-80
2024/04/16 09:12:46;;;;;;;8.80;0.50;;;8.50;99.90;;;;;;5413097;26;20343;-80
2024/04/16 09:15:16;;;;;;;10.10;0.85;;;8.80;99.90;;;;;;5395795;26;20471;-79
2024/04/16 09:17:49;;;;;;;6.38;0.80;;;8.90;99.90;;;;;;5404442;26;20023;-79
2024/04/16 09:20:17;;;;;;;10.52;1.67;;;8.90;99.90;;;;;;5378246;26;20111;-80
2024/04/16 09:22:42;;;;;;;10.57;0.70;;;9.00;99.90;;;;;;5402703;26;19996;-79
2024/04/16 09:25:08;;;;;;;6.75;0.50;;;9.10;99.90;;;;;;5390928;26;20396;-79
2024/04/16 09:27:34;;;;;;;3.45;0.60;;;9.20;99.90;;;;;;5396148;26;20068;-80
2024/04/16 09:30:12;;;;;;;11.55;0.77;;;9.30;99.90;;;;;;5397949;26;22357;-79
2024/04/16 09:32:38;;;;;;;10.55;0.95;;;9.30;99.90;;;;;;5414268;26;19999;-79
2024/04/16 09:35:05;;;;;;;8.00;0.75;;;9.30;99.90;;;;;;5398029;26;20075;-79
2024/04/16 09:37:31;;;;;;;4.47;0.38;;;9.30;99.90;;;;;;5415676;26;20513;-79
2024/04/16 09:39:59;;;;;;;3.53;0.30;;;9.40;99.90;;;;;;5397171;26;20019;-79
2024/04/16 09:42:26;;;;;;;6.13;0.82;;;9.60;99.90;;;;;;5403204;26;19995;-79
2024/04/16 09:44:52;;;;;;;14.18;1.30;;;9.60;99.90;;;;;;5391084;26;20081;-80
2024/04/16 09:47:18;;;;;;;2.60;0.20;;;9.70;99.90;;;;;;5399885;26;19995;-80
2024/04/16 09:49:44;;;;;;;6.07;0.57;;;9.80;99.90;;;;;;5396506;26;20023;-80
2024/04/16 09:52:14;;;;;;;2.22;0.20;;;9.90;99.90;;;;;;5411752;26;20029;-80
2024/04/16 09:54:43;;;;;;;3.20;0.22;;;9.90;99.90;;;;;;5402101;26;21376;-79
2024/04/16 09:57:10;;;;;;;3.72;0.57;;;9.90;99.90;;;;;;5388628;26;20012;-79
2024/04/16 09:59:37;;;;;;;4.78;0.50;;;10.00;99.90;;;;;;5391815;26;20413;-79
2024/04/16 10:02:03;;;;;;;2.53;0.30;;;10.00;99.90;;;;;;5409707;26;19999;-79
2024/04/16 10:04:32;;;;;;;7.75;0.75;;;10.10;99.90;;;;;;5409127;26;19995;-79
2024/04/16 10:06:57;;;;;;;3.72;0.40;;;10.10;99.90;;;;;;5388977;26;20019;-79
2024/04/16 10:09:24;;;;;;;5.38;0.40;;;10.20;99.90;;;;;;5431292;26;20003;-80
2024/04/16 10:11:50;;;;;;;3.22;0.30;;;10.20;99.90;;;;;;5408773;26;20023;-80
2024/04/16 10:14:19;;;;;;;7.80;0.30;;;10.20;99.90;;;;;;5388898;26;20061;-79
2024/04/16 10:16:50;;;;;;;3.78;0.25;;;10.20;99.90;;;;;;5389924;26;19996;-79
2024/04/16 10:19:17;;;;;;;3.53;0.30;;;10.20;99.90;;;;;;5400138;26;20003;-79
2024/04/16 10:21:47;;;;;;;1.85;0.20;;;10.40;99.90;;;;;;5387816;26;19996;-79
2024/04/16 10:24:16;;;;;;;4.47;0.30;;;10.50;99.90;;;;;;5378660;26;20004;-79
2024/04/16 10:26:44;;;;;;;3.75;0.50;;;10.50;99.90;;;;;;5396163;26;20144;-79
2024/04/16 10:29:17;;;;;;;3.33;0.68;;;10.40;99.90;;;;;;5414280;26;20184;-79
2024/04/16 10:31:49;;;;;;;3.28;0.20;;;10.50;99.90;;;;;;5387311;26;20011;-79
2024/04/16 10:34:22;;;;;;;1.65;0.10;;;10.70;99.90;;;;;;5416151;26;20015;-79
2024/04/16 10:36:50;;;;;;;1.73;0.20;;;10.80;99.90;;;;;;5443815;26;20014;-79
2024/04/16 10:39:17;;;;;;;1.48;0.13;;;10.90;99.90;;;;;;5410300;26;19999;-79
2024/04/16 10:41:53;;;;;;;1.63;0.20;;;10.90;99.90;;;;;;5402102;26;20008;-80
2024/04/16 10:44:22;;;;;;;2.92;0.20;;;11.00;99.90;;;;;;5399446;26;20447;-79
2024/04/16 10:46:53;;;;;;;3.25;0.17;;;10.90;99.90;;;;;;5392447;26;20019;-79
2024/04/16 10:49:22;;;;;;;1.60;0.20;;;10.80;99.90;;;;;;5406721;26;20064;-79
2024/04/16 10:51:50;;;;;;;2.13;0.20;;;10.70;99.90;;;;;;5399101;26;20000;-79
2024/04/16 10:54:15;;;;;;;1.52;0.20;;;10.70;99.90;;;;;;5397592;26;20001;-79
2024/04/16 10:56:42;;;;;;;1.52;0.20;;;10.80;99.90;;;;;;5405188;26;20478;-79
2024/04/16 10:59:14;;;;;;;4.15;0.25;;;10.90;99.90;;;;;;5396540;26;19995;-80
2024/04/16 11:01:40;;;;;;;;;;;11.00;99.90;;;;;;5394203;26;20444;-78
2024/04/16 11:04:14;;;;;;;1.50;0.20;;;11.00;99.90;;;;;;5383804;26;19925;-79
2024/04/16 11:06:40;;;;;;;2.15;0.20;;;11.10;99.90;;;;;;5389217;26;20004;-80
2024/04/16 11:09:06;;;;;;;2.63;0.50;;;11.10;99.90;;;;;;5400628;26;20140;-80
2024/04/16 11:11:35;;;;;;;1.75;0.20;;;11.20;99.90;;;;;;5396118;26;20037;-80
2024/04/16 11:14:01;;;;;;;2.33;0.20;;;11.40;99.90;;;;;;5406223;26;20008;-80
2024/04/16 11:16:28;;;;;;;1.65;0.10;;;11.60;99.90;;;;;;5413155;26;20014;-80
2024/04/16 11:18:53;;;;;;;2.95;0.10;;;11.70;99.90;;;;;;5401205;26;20004;-80
2024/04/16 11:21:21;;;;;;;2.47;0.10;;;11.70;99.90;;;;;;5395640;26;19996;-80
2024/04/16 11:23:48;;;;;;;0.95;0.10;;;11.80;99.90;;;;;;5413718;26;20340;-80
2024/04/16 11:26:14;;;;;;;1.30;0.63;;;11.60;99.90;;;;;;5401240;26;20007;-80
2024/04/16 11:28:40;;;;;;;2.92;0.20;;;11.00;99.90;;;;;;5411312;26;21966;-80
2024/04/16 11:31:06;;;;;;;1.98;0.10;;;10.20;99.90;;;;;;5409070;26;19999;-80
2024/04/16 11:33:33;;;;;;;2.83;0.20;;;9.70;99.90;;;;;;5398958;26;20340;-80
2024/04/16 11:36:05;;;;;;;1.35;0.10;;;9.30;99.90;;;;;;5405899;26;20011;-81
2024/04/16 11:38:33;;;;;;;2.45;0.20;;;9.30;99.90;;;;;;5394594;26;20003;-80
2024/04/16 11:40:59;;;;;;;3.60;0.30;;;9.50;99.90;;;;;;5400027;26;19996;-81
2024/04/16 11:43:34;;;;;;;2.33;0.30;;;9.90;99.90;;;;;;5392399;26;20004;-81
2024/04/16 11:46:04;;;;;;;2.17;0.38;;;10.40;99.90;;;;;;5402752;26;19996;-81
2024/04/16 11:48:33;;;;;;;4.95;0.50;;;10.70;99.90;;;;;;5394913;26;20011;-81
2024/04/16 11:50:58;;;;;;;3.88;0.20;;;10.80;99.90;;;;;;5412779;26;20019;-81
2024/04/16 11:53:24;;;;;;;2.10;0.20;;;10.90;99.90;;;;;;5405828;26;20011;-81
2024/04/16 11:55:50;;;;;;;5.95;0.30;;;10.80;99.90;;;;;;5413985;26;20052;-81
2024/04/16 11:58:16;;;;;;;2.58;0.20;;;10.70;99.90;;;;;;5398974;26;20022;-82
2024/04/16 12:00:41;;;;;;;4.45;0.30;;;10.50;99.90;;;;;;5406959;26;20467;-82
2024/04/16 12:03:07;;;;;;;2.45;0.10;;;10.20;99.90;;;;;;5379811;26;19996;-81
2024/04/16 12:05:33;;;;;;;2.03;0.20;;;9.70;99.90;;;;;;5397602;26;19995;-80
2024/04/16 12:07:59;;;;;;;2.58;0.20;;;9.30;99.90;;;;;;5392981;26;20046;-80
2024/04/16 12:10:27;;;;;;;3.22;0.20;;;9.00;99.90;;;;;;5403380;26;19999;-81
2024/04/16 12:12:53;;;;;;;2.33;0.40;;;8.90;99.90;;;;;;5398396;26;20000;-81
2024/04/16 12:15:19;;;;;;;1.73;0.20;;;8.90;99.90;;;;;;5403484;26;20015;-80
2024/04/16 12:17:44;;;;;;;5.05;0.30;;;9.00;99.90;;;;;;5414998;26;19995;-79
2024/04/16 12:20:10;;;;;;;3.75;0.30;;;9.20;99.90;;;;;;5401610;26;20012;-80
2024/04/16 12:22:36;;;;;;;5.65;0.80;;;9.40;99.90;;;;;;5406145;26;19996;-79
2024/04/16 12:25:02;;;;;;;3.08;0.20;;;9.60;99.90;;;;;;5407036;26;20014;-80
2024/04/16 12:27:28;;;;;;;2.65;0.55;;;9.70;99.90;;;;;;5395782;26;20002;-80
2024/04/16 12:29:54;;;;;;;0.93;0.20;;;9.80;99.90;;;;;;5404124;26;20000;-79
2024/04/16 12:32:19;;;;;;;1.67;0.20;;;9.80;99.90;;;;;;5408210;26;20409;-80
2024/04/16 12:34:45;;;;;;;1.38;0.20;;;9.80;99.90;;;;;;5410252;26;20014;-79
2024/04/16 12:37:11;;;;;;;2.00;0.30;;;9.90;99.90;;;;;;5405805;26;20004;-79
2024/04/16 12:39:37;;;;;;;1.35;0.10;;;10.00;99.90;;;;;;5391050;26;20018;-79
2024/04/16 12:42:03;;;;;;;3.70;0.20;;;10.00;99.90;;;;;;5402577;26;20000;-79
2024/04/16 12:44:29;;;;;;;2.78;0.20;;;10.10;99.90;;;;;;5393589;26;19991;-78
2024/04/16 12:46:55;;;;;;;2.00;0.25;;;10.10;99.90;;;;;;5410492;26;20643;-79
2024/04/16 12:49:23;;;;;;;0.88;0.20;;;10.00;99.90;;;;;;5413203;26;20312;-80
2024/04/16 12:51:49;;;;;;;2.47;0.20;;;10.00;99.90;;;;;;5391819;26;19995;-79